createdAt,value
2023-05-06T00:01:51.368Z,99.50
2023-05-06T00:06:53.479Z,99.80
2023-05-06T00:11:55.375Z,99.80
2023-05-06T00:16:57.258Z,99.90
2023-05-06T00:21:59.456Z,99.90
2023-05-06T00:27:01.844Z,99.90
2023-05-06T00:32:04.356Z,99.90
2023-05-06T00:37:06.319Z,99.90
2023-05-06T00:42:08.162Z,99.90
2023-05-06T00:47:10.625Z,99.90
2023-05-06T00:52:12.974Z,99.90
2023-05-06T00:57:14.939Z,99.90
2023-05-06T01:02:17.307Z,99.90
2023-05-06T01:07:28.172Z,99.90
2023-05-06T01:12:34.487Z,99.90
2023-05-06T01:17:40.300Z,99.90
2023-05-06T01:22:42.300Z,99.90
2023-05-06T01:27:44.142Z,99.90
2023-05-06T01:32:58.120Z,99.90
2023-05-06T01:38:17.960Z,99.90
2023-05-06T01:43:21.385Z,99.90
2023-05-06T01:48:25.207Z,99.90
2023-05-06T01:53:27.066Z,99.90
2023-05-06T01:58:28.890Z,99.90
2023-05-06T02:03:31.011Z,99.90
2023-05-06T02:08:33.046Z,99.90
2023-05-06T02:13:35.920Z,99.90
2023-05-06T02:18:37.759Z,99.90
2023-05-06T02:23:39.956Z,99.90
2023-05-06T02:28:41.906Z,99.90
2023-05-06T02:33:45.324Z,99.90
2023-05-06T02:38:47.151Z,99.90
2023-05-06T02:43:48.988Z,99.90
2023-05-06T02:48:50.815Z,99.90
2023-05-06T02:53:52.696Z,99.90
2023-05-06T02:58:54.604Z,99.90
2023-05-06T03:03:57.008Z,99.90
2023-05-06T03:08:58.830Z,99.90
2023-05-06T03:14:00.755Z,99.90
2023-05-06T03:19:04.717Z,99.90
2023-05-06T03:24:06.700Z,99.90
2023-05-06T03:29:08.529Z,99.90
2023-05-06T03:34:10.512Z,99.90
2023-05-06T03:39:12.574Z,99.90
2023-05-06T03:44:14.459Z,99.90
2023-05-06T03:49:16.361Z,99.90
2023-05-06T03:54:18.213Z,99.90
2023-05-06T03:59:20.065Z,99.90
2023-05-06T04:04:22.049Z,99.90
2023-05-06T04:09:23.918Z,99.90
2023-05-06T04:14:25.840Z,99.90
2023-05-06T04:19:27.735Z,99.90
2023-05-06T04:24:31.270Z,99.90
2023-05-06T04:29:33.129Z,99.90
2023-05-06T04:34:36.186Z,99.90
2023-05-06T04:39:39.393Z,99.90
2023-05-06T04:44:42.011Z,99.90
2023-05-06T04:49:43.884Z,99.90
2023-05-06T04:54:45.868Z,99.90
2023-05-06T04:59:47.714Z,99.90
2023-05-06T05:04:49.966Z,99.90
2023-05-06T05:09:51.810Z,99.90
2023-05-06T05:14:53.646Z,99.90
2023-05-06T05:19:55.506Z,99.90
2023-05-06T05:24:57.399Z,99.90
2023-05-06T05:30:00.133Z,99.90
2023-05-06T05:35:02.127Z,99.90
2023-05-06T05:40:04.751Z,99.90
2023-05-06T05:45:07.487Z,99.90
2023-05-06T05:50:09.651Z,99.90
2023-05-06T05:55:12.213Z,99.90
2023-05-06T06:00:14.630Z,99.90
2023-05-06T06:05:17.126Z,99.90
2023-05-06T06:10:19.035Z,99.90
2023-05-06T06:15:21.615Z,99.90
2023-05-06T06:20:23.453Z,99.90
2023-05-06T06:25:25.508Z,99.90
2023-05-06T06:30:27.445Z,99.90
2023-05-06T06:35:29.404Z,99.90
2023-05-06T06:40:32.363Z,99.90
2023-05-06T06:45:34.379Z,99.90
2023-05-06T06:50:36.294Z,97.00
2023-05-06T06:55:38.232Z,95.70
2023-05-06T07:00:40.116Z,95.40
2023-05-06T07:05:42.350Z,96.40
2023-05-06T07:10:44.199Z,95.90
2023-05-06T07:15:46.086Z,96.80
2023-05-06T07:20:47.924Z,96.90
2023-05-06T07:25:49.794Z,96.50
2023-05-06T07:30:52.653Z,96.90
2023-05-06T07:35:54.890Z,96.80
2023-05-06T07:40:57.207Z,95.90
2023-05-06T07:46:03.097Z,96.10
2023-05-06T07:51:05.153Z,93.40
2023-05-06T07:56:07.257Z,92.60
2023-05-06T08:01:09.162Z,91.60
2023-05-06T08:06:11.214Z,90.30
2023-05-06T08:11:13.046Z,86.20
2023-05-06T08:16:15.149Z,87.70
2023-05-06T08:21:17.085Z,86.00
2023-05-06T08:26:18.946Z,83.20
2023-05-06T08:31:20.902Z,82.20
2023-05-06T08:36:22.918Z,82.30
2023-05-06T08:41:26.575Z,80.80
2023-05-06T08:46:30.901Z,79.30
2023-05-06T08:51:35.213Z,80.60
2023-05-06T08:56:38.887Z,81.40
2023-05-06T09:01:41.105Z,80.30
2023-05-06T09:06:42.989Z,79.20
2023-05-06T09:11:44.852Z,79.90
2023-05-06T09:16:49.605Z,78.30
2023-05-06T09:21:52.084Z,77.50
2023-05-06T09:26:55.492Z,79.00
2023-05-06T09:31:58.139Z,78.90
2023-05-06T09:37:01.002Z,78.40
2023-05-06T09:42:03.350Z,79.30
2023-05-06T09:47:06.030Z,80.10
2023-05-06T09:52:08.087Z,79.30
2023-05-06T09:57:09.937Z,79.50
2023-05-06T10:02:13.422Z,80.80
2023-05-06T10:07:17.910Z,81.40
2023-05-06T10:12:20.304Z,79.30
2023-05-06T10:17:25.782Z,78.70
2023-05-06T10:22:46.315Z,77.40
2023-05-06T10:27:48.299Z,79.00
2023-05-06T10:32:52.426Z,81.80
2023-05-06T10:37:54.966Z,82.70
2023-05-06T10:43:28.759Z,82.50
2023-05-06T10:48:30.991Z,81.30
2023-05-06T10:53:55.708Z,83.80
2023-05-06T10:58:57.888Z,85.60
2023-05-06T11:04:05.643Z,84.60
2023-05-06T11:09:16.173Z,83.10
2023-05-06T11:14:31.614Z,82.00
2023-05-06T11:19:40.072Z,81.20
2023-05-06T11:24:43.157Z,80.50
2023-05-06T11:29:45.425Z,80.90
2023-05-06T11:34:47.313Z,82.20
2023-05-06T11:39:49.229Z,79.40
2023-05-06T11:44:54.368Z,80.80
2023-05-06T11:49:56.356Z,82.60
2023-05-06T11:54:58.191Z,85.90
2023-05-06T12:00:00.133Z,88.90
2023-05-06T12:05:02.757Z,91.50
2023-05-06T12:10:06.687Z,91.90
2023-05-06T12:15:09.486Z,91.90
2023-05-06T12:20:12.307Z,92.40
2023-05-06T12:25:27.943Z,93.90
2023-05-06T12:30:34.224Z,94.40
2023-05-06T12:35:36.086Z,96.70
2023-05-06T12:40:40.982Z,99.30
2023-05-06T12:45:42.862Z,99.70
2023-05-06T12:50:45.386Z,98.80
2023-05-06T12:55:47.206Z,96.70
2023-05-06T13:00:49.126Z,97.10
2023-05-06T13:05:51.917Z,96.80
2023-05-06T13:10:54.219Z,93.50
2023-05-06T13:15:56.361Z,92.90
2023-05-06T13:21:00.223Z,91.60
2023-05-06T13:26:06.160Z,90.30
2023-05-06T13:31:08.268Z,85.90
2023-05-06T13:36:10.317Z,86.70
2023-05-06T13:41:12.160Z,84.50
2023-05-06T13:46:14.027Z,81.00
2023-05-06T13:51:15.920Z,83.10
2023-05-06T13:56:17.717Z,87.40
2023-05-06T14:01:23.767Z,90.80
2023-05-06T14:06:28.428Z,90.50
2023-05-06T14:11:30.490Z,92.80
2023-05-06T14:16:35.377Z,95.50
2023-05-06T14:21:37.224Z,98.00
2023-05-06T14:26:40.355Z,99.20
2023-05-06T14:31:42.232Z,99.90
2023-05-06T14:36:44.055Z,99.90
2023-05-06T14:41:46.619Z,99.90
2023-05-06T14:46:49.123Z,99.90
2023-05-06T14:51:51.140Z,99.90
2023-05-06T14:56:52.963Z,99.90
2023-05-06T15:01:56.332Z,99.90
2023-05-06T15:06:58.217Z,99.90
2023-05-06T15:12:00.577Z,99.90
2023-05-06T15:17:02.565Z,99.10
2023-05-06T15:22:04.581Z,98.20
2023-05-06T15:27:06.659Z,97.80
2023-05-06T15:32:08.993Z,99.60
2023-05-06T15:37:11.157Z,99.60
2023-05-06T15:42:13.044Z,99.50
2023-05-06T15:47:14.840Z,99.90
2023-05-06T15:52:16.647Z,99.90
2023-05-06T15:57:18.504Z,99.90
2023-05-06T16:07:25.285Z,99.90
2023-05-06T16:12:27.347Z,99.90
2023-05-06T16:17:29.201Z,99.90
2023-05-06T16:22:31.047Z,99.90
2023-05-06T16:27:33.430Z,99.90
2023-05-06T16:32:35.406Z,99.90
2023-05-06T16:37:37.265Z,99.90
2023-05-06T16:42:39.164Z,99.90
2023-05-06T16:47:41.650Z,99.90
2023-05-06T16:52:43.690Z,99.90
2023-05-06T16:57:45.555Z,99.90
2023-05-06T17:02:47.804Z,99.90
2023-05-06T17:07:50.714Z,99.90
2023-05-06T17:12:53.316Z,99.90
2023-05-06T17:17:55.214Z,99.90
2023-05-06T17:22:57.113Z,99.90
2023-05-06T17:27:58.951Z,99.90
2023-05-06T17:33:00.816Z,99.90
2023-05-06T17:38:02.647Z,99.90
2023-05-06T17:43:04.566Z,99.90
2023-05-06T17:48:06.790Z,99.90
2023-05-06T17:53:08.657Z,99.90
2023-05-06T17:58:10.486Z,99.90
2023-05-06T18:03:12.418Z,99.90
2023-05-06T18:08:14.381Z,99.90
2023-05-06T18:13:16.760Z,99.90
2023-05-06T18:18:18.594Z,99.90
2023-05-06T18:23:20.396Z,99.90
2023-05-06T18:28:22.381Z,99.90
2023-05-06T18:33:24.316Z,99.90
2023-05-06T18:38:26.551Z,99.90
2023-05-06T18:43:29.710Z,99.90
2023-05-06T18:48:32.645Z,99.90
2023-05-06T18:53:35.573Z,99.90
2023-05-06T18:58:38.501Z,99.90
2023-05-06T19:03:40.530Z,99.90
2023-05-06T19:08:42.385Z,99.90
2023-05-06T19:13:45.103Z,99.90
2023-05-06T19:18:47.838Z,99.90
2023-05-06T19:23:50.094Z,99.90
2023-05-06T19:28:51.940Z,99.90
2023-05-06T19:33:53.775Z,99.90
2023-05-06T19:38:55.783Z,99.90
2023-05-06T19:43:57.625Z,99.90
2023-05-06T19:49:00.977Z,99.90
2023-05-06T19:54:27.165Z,99.90
2023-05-06T19:59:31.078Z,99.90
2023-05-06T20:04:52.168Z,99.90
2023-05-06T20:09:56.014Z,99.90
2023-05-06T20:14:58.075Z,99.90
2023-05-06T20:20:00.819Z,99.90
2023-05-06T20:25:17.425Z,99.90
2023-05-06T20:30:25.678Z,99.90
2023-05-06T20:35:27.509Z,99.90
2023-05-06T20:40:30.790Z,99.90
2023-05-06T20:45:32.722Z,99.90
2023-05-06T20:50:34.539Z,99.90
2023-05-06T20:55:36.379Z,99.90
2023-05-06T21:00:38.188Z,99.90
2023-05-06T21:05:40.058Z,99.90
2023-05-06T21:10:41.848Z,99.90
2023-05-06T21:15:44.324Z,99.90
2023-05-06T21:20:46.099Z,99.90
2023-05-06T21:25:56.206Z,99.90
2023-05-06T21:30:58.115Z,99.90
2023-05-06T21:36:00.097Z,99.90
2023-05-06T21:41:01.916Z,99.90
2023-05-06T21:46:04.407Z,99.90
2023-05-06T21:51:07.341Z,99.90
2023-05-06T21:56:09.168Z,99.90
2023-05-06T22:01:11.292Z,99.90
2023-05-06T22:06:17.095Z,99.90
2023-05-06T22:11:18.986Z,99.90
2023-05-06T22:16:20.968Z,99.90
2023-05-06T22:21:23.227Z,99.90
2023-05-06T22:26:25.152Z,99.90
2023-05-06T22:31:27.078Z,99.90
2023-05-06T22:36:31.547Z,99.90
2023-05-06T22:41:33.341Z,99.90
2023-05-06T22:46:35.199Z,99.90
2023-05-06T22:51:37.107Z,99.90
2023-05-06T22:56:38.906Z,99.90
2023-05-06T23:01:40.890Z,99.90
2023-05-06T23:06:44.434Z,99.90
2023-05-06T23:11:48.345Z,99.90
2023-05-06T23:16:50.257Z,99.90
2023-05-06T23:21:52.259Z,99.90
2023-05-06T23:26:54.696Z,99.90
2023-05-06T23:31:56.544Z,99.90
2023-05-06T23:36:58.361Z,99.90
2023-05-06T23:42:03.679Z,99.90
2023-05-06T23:47:05.600Z,99.90
2023-05-06T23:52:07.427Z,99.90
2023-05-06T23:57:09.266Z,99.90
